Skip to main content.
Our real time weather data display below is updated continuously via our 24/7 live data feed.
 TIME   TEMPERATURE   WINDSPEED   DIRECTION   HUMIDITY   BAROMETER   RAINFALL 
9:40 26.8°C (80.2°F) 0.0 kmh (0.0 mph) WSW 78% 1017.2hPa (30.04 inHg) 0.0mm (0.00 in.)
8:40 26.5°C (79.7 °F) 0.0 kmh (0.0 mph) SW 83% 1016.8hPa (30.03 inHg) 0.0mm (0.00 in.)
7:40 24.8°C (76.6 °F) 0.0 kmh (0.0 mph) SW 90% 1016.6hPa (30.02 inHg) 0.0mm (0.00 in.)
6:40 24.4°C (75.9 °F) 0.0 kmh (0.0 mph) WSW 90% 1016.8hPa (30.03 inHg) 0.0mm (0.00 in.)
5:40 24.3°C (75.7 °F) 0.0 kmh (0.0 mph) WSW 89% 1016.4hPa (30.01 inHg) 0.0mm (0.00 in.)
4:40 24.7°C (76.5 °F) 0.0 kmh (0.0 mph) WSW 88% 1015.9hPa (30.00 inHg) 0.0mm (0.00 in.)
3:40 24.8°C (76.6 °F) 0.0 kmh (0.0 mph) WSW 87% 1016.4hPa (30.01 inHg) 0.0mm (0.00 in.)
2:40 24.9°C (76.8 °F) 0.0 kmh (0.0 mph) WSW 85% 1016.8hPa (30.03 inHg) 0.0mm (0.00 in.)
1:40 25.3°C (77.5 °F) 0.0 kmh (0.0 mph) WSW 83% 1017.3hPa (30.04 inHg) 0.0mm (0.00 in.)
12:40 25.4°C (77.7 °F) 0.0 kmh (0.0 mph) WSW 83% 1017.3hPa (30.04 inHg) 0.0mm (0.00 in.)
11:40 25.6°C (78.1 °F) 0.0 kmh (0.0 mph) WSW 82% 1017.9hPa (30.06 inHg) 0.0mm (0.00 in.)
10:40 25.8°C (78.4 °F) 0.0 kmh (0.0 mph) WSW 81% 1017.6hPa (30.05 inHg) 0.0mm (0.00 in.)
9:40 26.0°C (78.8 °F) 0.0 kmh (0.0 mph) SW 79% 1017.5hPa (30.05 inHg) 0.0mm (0.00 in.)
8:40 26.2°C (79.2 °F) 0.0 kmh (0.0 mph) SW 78% 1017.6hPa (30.05 inHg) 0.0mm (0.00 in.)
7:40 26.7°C (80.1 °F) 0.0 kmh (0.0 mph) SW 74% 1017.1hPa (30.03 inHg) 0.0mm (0.00 in.)
6:40 27.3°C (81.1 °F) 0.0 kmh (0.0 mph) SW 70% 1016.6hPa (30.02 inHg) 0.0mm (0.00 in.)
5:40 28.8°C (83.8 °F) 1.9 kmh (1.2 mph) SW 65% 1016.5hPa (30.02 inHg) 0.0mm (0.00 in.)
4:40 29.1°C (84.4 °F) 0.0 kmh (0.0 mph) SW 64% 1016.8hPa (30.03 inHg) 0.0mm (0.00 in.)
3:40 27.8°C (82.0 °F) 0.0 kmh (0.0 mph) E 71% 1017.2hPa (30.04 inHg) 0.0mm (0.00 in.)
2:40 30.2°C (86.4 °F) 0.0 kmh (0.0 mph) WSW 63% 1017.3hPa (30.04 inHg) 0.0mm (0.00 in.)
1:40 28.8°C (83.8 °F) 0.0 kmh (0.0 mph) SW 67% 1017.8hPa (30.06 inHg) 0.0mm (0.00 in.)
12:40 29.5°C (85.1 °F) 0.0 kmh (0.0 mph) SW 65% 1017.9hPa (30.06 inHg) 0.0mm (0.00 in.)
11:40 27.8°C (82.0 °F) 1.9 kmh (1.2 mph) W 73% 1017.9hPa (30.06 inHg) 0.0mm (0.00 in.)
10:40 28.4°C (83.1 °F) 0.0 kmh (0.0 mph) WNW 68% 1018.4hPa (30.07 inHg) 0.0mm (0.00 in.)